Alnika — YP3337 — position and weather

sailwx.info

Track history (hours):
 
Tides and Currents Weather Stations Pressure Air Temp Water Temp Dewpoint Dewpoint Depression Visibility Wind Speed Wind Dir Waves Ship Positions

Alnika

Last reported at 2018-Jun-19 08:00 UTC. Time now 2018-Jun-19 08:14 UTC.
Position N 44°20' E 028°40'.

Length 105 m; draft 0.4 m.

Type: Tanker. MMSI: 264163337.

Date/timePositionNaut miles runAvg speedWind from/ knotsBaromVisibWave heightAir tempDewpointWater temp
2018-Jun-19 08:00N 44°20' E 028°40'0 0.0
2018-Jun-19 07:30N 44°20' E 028°40'1 2.2
2018-Jun-19 07:01N 44°20' E 028°39'1 2.1
2018-Jun-19 06:29N 44°19' E 028°37'1 1.7
2018-Jun-19 06:00N 44°19' E 028°37'3 5.4
2018-Jun-19 05:30N 44°16' E 028°35'2 3.3
2018-Jun-19 05:00N 44°16' E 028°33'0 0.3
2018-Jun-19 04:30N 44°16' E 028°32'0 0.0
2018-Jun-19 04:00N 44°16' E 028°32'0 0.0
2018-Jun-19 03:30N 44°16' E 028°32'0 0.0
2018-Jun-19 03:00N 44°16' E 028°32'0 0.0
2018-Jun-19 02:30N 44°16' E 028°32'0 0.0
2018-Jun-19 02:00N 44°16' E 028°32'0 0.0
2018-Jun-19 01:30N 44°16' E 028°32'0 0.0
2018-Jun-19 01:00N 44°16' E 028°32'0 0.0
2018-Jun-19 00:30N 44°16' E 028°32'0 0.0
2018-Jun-19 00:00N 44°16' E 028°32'0 0.0
2018-Jun-18 23:30N 44°16' E 028°32'0 0.0
2018-Jun-18 23:00N 44°16' E 028°32'0 0.0
2018-Jun-18 22:28N 44°16' E 028°32'0 0.0
2018-Jun-18 22:00N 44°16' E 028°32'0 0.0
2018-Jun-18 21:30N 44°16' E 028°32'0 0.0
2018-Jun-18 21:00N 44°16' E 028°32'0 0.0
2018-Jun-18 20:30N 44°16' E 028°32'0 0.0
2018-Jun-18 20:00N 44°16' E 028°32'0 0.0
2018-Jun-18 19:30N 44°16' E 028°32'0 0.0
2018-Jun-18 19:00N 44°16' E 028°32'0 0.0
2018-Jun-18 18:30N 44°16' E 028°32'0 0.0
2018-Jun-18 18:00N 44°16' E 028°32'4 4.7
2018-Jun-18 17:06N 44°14' E 028°27'1 6.6
2018-Jun-18 16:59N 44°14' E 028°26'3 5.9
2018-Jun-18 16:30N 44°14' E 028°22'3 6.3
2018-Jun-18 16:00N 44°15' E 028°19'4 7.1
2018-Jun-18 15:30N 44°15' E 028°14'4 7.9
2018-Jun-18 14:57N 44°16' E 028°08'  
2018-Jun-14 18:57N 44°51' E 027°50'37 5.4
2018-Jun-14 12:06N 44°16' E 028°08'1 5.7
2018-Jun-14 11:56N 44°16' E 028°09'3 6.1
2018-Jun-14 11:28N 44°16' E 028°13'3 7.0
2018-Jun-14 10:59N 44°15' E 028°18'3 6.6
2018-Jun-14 10:27N 44°14' E 028°22'3 5.2
2018-Jun-14 09:55N 44°14' E 028°26'5 5.8
2018-Jun-14 09:06N 44°16' E 028°32'1 5.5
2018-Jun-14 09:00N 44°16' E 028°33'0 0.9
2018-Jun-14 08:30N 44°16' E 028°33'3 6.1
2018-Jun-14 08:00N 44°18' E 028°37'2 3.5
2018-Jun-14 07:30N 44°19' E 028°38'1 2.7
2018-Jun-14 07:00N 44°20' E 028°39'1 1.2
2018-Jun-14 06:30N 44°20' E 028°40'0 0.0
2018-Jun-14 06:00N 44°20' E 028°40'0 0.0
2018-Jun-14 05:30N 44°20' E 028°40'0 0.0
2018-Jun-14 04:59N 44°20' E 028°40'0 0.0
2018-Jun-14 04:30N 44°20' E 028°40'0 0.0
2018-Jun-14 04:00N 44°20' E 028°40'0 0.0
2018-Jun-14 03:30N 44°20' E 028°40'0 0.0
2018-Jun-14 03:00N 44°20' E 028°40'0 0.0
2018-Jun-14 02:30N 44°20' E 028°40'0 0.0
2018-Jun-14 02:00N 44°20' E 028°40'0 0.0
2018-Jun-14 01:30N 44°20' E 028°40'0 0.0
2018-Jun-14 01:00N 44°20' E 028°40'0 0.0
2018-Jun-14 00:30N 44°20' E 028°40'0 0.0
2018-Jun-14 00:00N 44°20' E 028°40'0 0.0
2018-Jun-13 23:30N 44°20' E 028°40'0 0.0
2018-Jun-13 23:00N 44°20' E 028°40'0 0.0
2018-Jun-13 22:30N 44°20' E 028°40'0 0.0
2018-Jun-13 22:00N 44°20' E 028°40'0 0.0
2018-Jun-13 21:30N 44°20' E 028°40'0 0.0
2018-Jun-13 21:00N 44°20' E 028°40'0 0.0
2018-Jun-13 20:30N 44°20' E 028°40'0 0.0
2018-Jun-13 20:00N 44°20' E 028°40'0 0.0
2018-Jun-13 19:30N 44°20' E 028°40'0 0.0
2018-Jun-13 19:00N 44°20' E 028°40'0 0.0
2018-Jun-13 18:30N 44°20' E 028°40'0 0.0
2018-Jun-13 18:00N 44°20' E 028°40'0 0.0
2018-Jun-13 17:30N 44°20' E 028°40'0 0.0
2018-Jun-13 17:00N 44°20' E 028°40'2 3.4
2018-Jun-13 16:27N 44°19' E 028°38'0 0.0
2018-Jun-13 16:00N 44°19' E 028°38'0 0.0
2018-Jun-13 15:30N 44°19' E 028°38'0 0.0
2018-Jun-13 15:00N 44°19' E 028°38'0 0.0
2018-Jun-13 14:30N 44°19' E 028°38'0 0.0
2018-Jun-13 14:00N 44°19' E 028°38'0 0.0
2018-Jun-13 13:30N 44°19' E 028°38'0 0.0
2018-Jun-13 13:00N 44°19' E 028°38'0 0.0
2018-Jun-13 12:30N 44°19' E 028°38'0 0.0
2018-Jun-13 12:00N 44°19' E 028°38'0 0.0
2018-Jun-13 11:30N 44°19' E 028°38'0 0.0
2018-Jun-13 11:00N 44°19' E 028°38'0 0.0
2018-Jun-13 10:30N 44°19' E 028°38'0 0.0
2018-Jun-13 10:00N 44°19' E 028°38'0 0.0
2018-Jun-13 09:30N 44°19' E 028°38'0 0.0
2018-Jun-13 09:00N 44°19' E 028°38'0 0.0
2018-Jun-13 08:30N 44°19' E 028°38'0 0.0
2018-Jun-13 08:00N 44°19' E 028°38'0 0.0
2018-Jun-13 07:30N 44°19' E 028°38'0 0.0
2018-Jun-13 07:00N 44°19' E 028°38'0 0.0
2018-Jun-13 06:30N 44°19' E 028°38'2 2.2
2018-Jun-13 05:45N 44°18' E 028°37'2 6.0
2018-Jun-13 05:28N 44°17' E 028°35'2 4.2
2018-Jun-13 05:00N 44°16' E 028°33'0 0.3
2018-Jun-13 04:30N 44°16' E 028°32'0 0.0
2018-Jun-13 04:00N 44°16' E 028°32'0 0.0
2018-Jun-13 03:30N 44°16' E 028°32'0 0.0
2018-Jun-13 03:00N 44°16' E 028°32'0 0.0
2018-Jun-13 02:30N 44°16' E 028°32'0 0.0
2018-Jun-13 02:00N 44°16' E 028°32'0 0.0
2018-Jun-13 01:30N 44°16' E 028°32'0 0.0
2018-Jun-13 01:00N 44°16' E 028°32'0 0.0
2018-Jun-13 00:31N 44°16' E 028°32'0 0.0
2018-Jun-13 00:00N 44°16' E 028°32'0 0.0
2018-Jun-12 23:30N 44°16' E 028°32'0 0.0
2018-Jun-12 23:00N 44°16' E 028°32'0 0.0
2018-Jun-12 22:30N 44°16' E 028°32'0 0.0
2018-Jun-12 22:00N 44°16' E 028°32'0 0.0
2018-Jun-12 21:30N 44°16' E 028°32'0 0.0
2018-Jun-12 21:00N 44°16' E 028°32'0 0.0
2018-Jun-12 20:30N 44°16' E 028°32'6 5.9
2018-Jun-12 19:33N 44°14' E 028°26'1 7.0
2018-Jun-12 19:26N 44°13' E 028°25'3 6.5
2018-Jun-12 19:00N 44°15' E 028°21'4 7.8
2018-Jun-12 18:30N 44°15' E 028°16'  
Track history (hours):
 
Tides and Currents Weather Stations Pressure Air Temp Water Temp Dewpoint Dewpoint Depression Visibility Wind Speed Wind Dir Waves Ship Positions

Alnika

Last reported at 2018-Jun-19 08:00 UTC. Time now 2018-Jun-19 08:14 UTC.
Position N 44°20' E 028°40'.

Length 105 m; draft 0.4 m.

Type: Tanker. MMSI: 264163337.

Date/timePositionNaut miles runAvg speedWind from/ knotsBaromVisibWave heightAir tempDewpointWater temp
2018-Jun-19 08:00N 44°20' E 028°40'0 0.0
2018-Jun-19 07:30N 44°20' E 028°40'1 2.2
2018-Jun-19 07:01N 44°20' E 028°39'1 2.1
2018-Jun-19 06:29N 44°19' E 028°37'1 1.7
2018-Jun-19 06:00N 44°19' E 028°37'3 5.4
2018-Jun-19 05:30N 44°16' E 028°35'2 3.3
2018-Jun-19 05:00N 44°16' E 028°33'0 0.3
2018-Jun-19 04:30N 44°16' E 028°32'0 0.0
2018-Jun-19 04:00N 44°16' E 028°32'0 0.0
2018-Jun-19 03:30N 44°16' E 028°32'0 0.0
2018-Jun-19 03:00N 44°16' E 028°32'0 0.0
2018-Jun-19 02:30N 44°16' E 028°32'0 0.0
2018-Jun-19 02:00N 44°16' E 028°32'0 0.0
2018-Jun-19 01:30N 44°16' E 028°32'0 0.0
2018-Jun-19 01:00N 44°16' E 028°32'0 0.0
2018-Jun-19 00:30N 44°16' E 028°32'0 0.0
2018-Jun-19 00:00N 44°16' E 028°32'0 0.0
2018-Jun-18 23:30N 44°16' E 028°32'0 0.0
2018-Jun-18 23:00N 44°16' E 028°32'0 0.0
2018-Jun-18 22:28N 44°16' E 028°32'0 0.0
2018-Jun-18 22:00N 44°16' E 028°32'0 0.0
2018-Jun-18 21:30N 44°16' E 028°32'0 0.0
2018-Jun-18 21:00N 44°16' E 028°32'0 0.0
2018-Jun-18 20:30N 44°16' E 028°32'0 0.0
2018-Jun-18 20:00N 44°16' E 028°32'0 0.0
2018-Jun-18 19:30N 44°16' E 028°32'0 0.0
2018-Jun-18 19:00N 44°16' E 028°32'0 0.0
2018-Jun-18 18:30N 44°16' E 028°32'0 0.0
2018-Jun-18 18:00N 44°16' E 028°32'4 4.7
2018-Jun-18 17:06N 44°14' E 028°27'1 6.6
2018-Jun-18 16:59N 44°14' E 028°26'3 5.9
2018-Jun-18 16:30N 44°14' E 028°22'3 6.3
2018-Jun-18 16:00N 44°15' E 028°19'4 7.1
2018-Jun-18 15:30N 44°15' E 028°14'4 7.9
2018-Jun-18 14:57N 44°16' E 028°08'  
2018-Jun-14 18:57N 44°51' E 027°50'37 5.4
2018-Jun-14 12:06N 44°16' E 028°08'1 5.7
2018-Jun-14 11:56N 44°16' E 028°09'3 6.1
2018-Jun-14 11:28N 44°16' E 028°13'3 7.0
2018-Jun-14 10:59N 44°15' E 028°18'3 6.6
2018-Jun-14 10:27N 44°14' E 028°22'3 5.2
2018-Jun-14 09:55N 44°14' E 028°26'5 5.8
2018-Jun-14 09:06N 44°16' E 028°32'1 5.5
2018-Jun-14 09:00N 44°16' E 028°33'0 0.9
2018-Jun-14 08:30N 44°16' E 028°33'3 6.1
2018-Jun-14 08:00N 44°18' E 028°37'2 3.5
2018-Jun-14 07:30N 44°19' E 028°38'1 2.7
2018-Jun-14 07:00N 44°20' E 028°39'1 1.2
2018-Jun-14 06:30N 44°20' E 028°40'0 0.0
2018-Jun-14 06:00N 44°20' E 028°40'0 0.0
2018-Jun-14 05:30N 44°20' E 028°40'0 0.0
2018-Jun-14 04:59N 44°20' E 028°40'0 0.0
2018-Jun-14 04:30N 44°20' E 028°40'0 0.0
2018-Jun-14 04:00N 44°20' E 028°40'0 0.0
2018-Jun-14 03:30N 44°20' E 028°40'0 0.0
2018-Jun-14 03:00N 44°20' E 028°40'0 0.0
2018-Jun-14 02:30N 44°20' E 028°40'0 0.0
2018-Jun-14 02:00N 44°20' E 028°40'0 0.0
2018-Jun-14 01:30N 44°20' E 028°40'0 0.0
2018-Jun-14 01:00N 44°20' E 028°40'0 0.0
2018-Jun-14 00:30N 44°20' E 028°40'0 0.0
2018-Jun-14 00:00N 44°20' E 028°40'0 0.0
2018-Jun-13 23:30N 44°20' E 028°40'0 0.0
2018-Jun-13 23:00N 44°20' E 028°40'0 0.0
2018-Jun-13 22:30N 44°20' E 028°40'0 0.0
2018-Jun-13 22:00N 44°20' E 028°40'0 0.0
2018-Jun-13 21:30N 44°20' E 028°40'0 0.0
2018-Jun-13 21:00N 44°20' E 028°40'0 0.0
2018-Jun-13 20:30N 44°20' E 028°40'0 0.0
2018-Jun-13 20:00N 44°20' E 028°40'0 0.0
2018-Jun-13 19:30N 44°20' E 028°40'0 0.0
2018-Jun-13 19:00N 44°20' E 028°40'0 0.0
2018-Jun-13 18:30N 44°20' E 028°40'0 0.0
2018-Jun-13 18:00N 44°20' E 028°40'0 0.0
2018-Jun-13 17:30N 44°20' E 028°40'0 0.0
2018-Jun-13 17:00N 44°20' E 028°40'2 3.4
2018-Jun-13 16:27N 44°19' E 028°38'0 0.0
2018-Jun-13 16:00N 44°19' E 028°38'0 0.0
2018-Jun-13 15:30N 44°19' E 028°38'0 0.0
2018-Jun-13 15:00N 44°19' E 028°38'0 0.0
2018-Jun-13 14:30N 44°19' E 028°38'0 0.0
2018-Jun-13 14:00N 44°19' E 028°38'0 0.0
2018-Jun-13 13:30N 44°19' E 028°38'0 0.0
2018-Jun-13 13:00N 44°19' E 028°38'0 0.0
2018-Jun-13 12:30N 44°19' E 028°38'0 0.0
2018-Jun-13 12:00N 44°19' E 028°38'0 0.0
2018-Jun-13 11:30N 44°19' E 028°38'0 0.0
2018-Jun-13 11:00N 44°19' E 028°38'0 0.0
2018-Jun-13 10:30N 44°19' E 028°38'0 0.0
2018-Jun-13 10:00N 44°19' E 028°38'0 0.0
2018-Jun-13 09:30N 44°19' E 028°38'0 0.0
2018-Jun-13 09:00N 44°19' E 028°38'0 0.0
2018-Jun-13 08:30N 44°19' E 028°38'0 0.0
2018-Jun-13 08:00N 44°19' E 028°38'0 0.0
2018-Jun-13 07:30N 44°19' E 028°38'0 0.0
2018-Jun-13 07:00N 44°19' E 028°38'0 0.0
2018-Jun-13 06:30N 44°19' E 028°38'2 2.2
2018-Jun-13 05:45N 44°18' E 028°37'2 6.0
2018-Jun-13 05:28N 44°17' E 028°35'2 4.2
2018-Jun-13 05:00N 44°16' E 028°33'0 0.3
2018-Jun-13 04:30N 44°16' E 028°32'0 0.0
2018-Jun-13 04:00N 44°16' E 028°32'0 0.0
2018-Jun-13 03:30N 44°16' E 028°32'0 0.0
2018-Jun-13 03:00N 44°16' E 028°32'0 0.0
2018-Jun-13 02:30N 44°16' E 028°32'0 0.0
2018-Jun-13 02:00N 44°16' E 028°32'0 0.0
2018-Jun-13 01:30N 44°16' E 028°32'0 0.0
2018-Jun-13 01:00N 44°16' E 028°32'0 0.0
2018-Jun-13 00:31N 44°16' E 028°32'0 0.0
2018-Jun-13 00:00N 44°16' E 028°32'0 0.0
2018-Jun-12 23:30N 44°16' E 028°32'0 0.0
2018-Jun-12 23:00N 44°16' E 028°32'0 0.0
2018-Jun-12 22:30N 44°16' E 028°32'0 0.0
2018-Jun-12 22:00N 44°16' E 028°32'0 0.0
2018-Jun-12 21:30N 44°16' E 028°32'0 0.0
2018-Jun-12 21:00N 44°16' E 028°32'0 0.0
2018-Jun-12 20:30N 44°16' E 028°32'6 5.9
2018-Jun-12 19:33N 44°14' E 028°26'1 7.0
2018-Jun-12 19:26N 44°13' E 028°25'3 6.5
2018-Jun-12 19:00N 44°15' E 028°21'4 7.8
2018-Jun-12 18:30N 44°15' E 028°16'  

Dump ship's entire track history